Time;durP1;ratioP1;P1;durP2;ratioP2;P2;SDS_P1;SDS_P2;PMS_P1;PMS_P2;Temp;Humidity;BMP_temperature;BMP_pressure;BME280_temperature;BME280_humidity;BME280_pressure;Samples;Min_cycle;Max_cycle;Signal;HPM_P1;HPM_P2
2022/02/27 00:01:48;;;;;;;15.35;4.47;;;;;;;0.21;51.58;103499.06;4985044;28;20025;-80
2022/02/27 00:04:13;;;;;;;10.10;5.03;;;;;;;0.20;52.13;103507.56;4978224;28;20065;-80
2022/02/27 00:06:39;;;;;;;11.25;3.47;;;;;;;0.20;52.19;103507.56;4987737;28;20503;-78
2022/02/27 00:09:04;;;;;;;14.80;4.68;;;;;;;0.20;52.43;103504.13;4961461;28;20030;-80
2022/02/27 00:11:30;;;;;;;9.95;3.75;;;;;;;0.26;51.95;103512.13;4978751;28;20119;-78
2022/02/27 00:13:56;;;;;;;8.50;3.45;;;;;;;0.26;51.59;103506.97;4978167;28;20042;-80
2022/02/27 00:16:22;;;;;;;8.85;3.85;;;;;;;0.16;51.37;103508.22;4978325;28;20038;-78
2022/02/27 00:18:48;;;;;;;14.13;4.05;;;;;;;0.04;51.70;103510.25;4977083;28;20486;-78
2022/02/27 00:21:13;;;;;;;8.88;3.78;;;;;;;-0.05;51.80;103515.84;4970679;28;20038;-78
2022/02/27 00:23:39;;;;;;;7.35;2.78;;;;;;;0.01;51.66;103515.22;4997923;28;20045;-79
2022/02/27 00:26:05;;;;;;;16.38;3.22;;;;;;;-0.11;52.43;103510.41;4960311;28;20040;-79
2022/02/27 00:28:30;;;;;;;10.82;2.75;;;;;;;-0.08;51.61;103514.81;4971165;28;20050;-77
2022/02/27 00:30:58;;;;;;;12.93;2.90;;;;;;;-0.25;52.08;103514.91;4978159;28;20037;-79
2022/02/27 00:33:24;;;;;;;10.52;2.45;;;;;;;-0.30;52.48;103513.81;4970597;28;20419;-79
2022/02/27 00:35:50;;;;;;;8.65;1.95;;;;;;;-0.36;51.94;103511.81;4977049;28;20095;-78
2022/02/27 00:38:16;;;;;;;7.88;1.92;;;;;;;-0.32;52.58;103520.56;4974102;28;20323;-79
2022/02/27 00:40:42;;;;;;;8.93;2.60;;;;;;;-0.29;52.47;103514.69;4977452;28;20160;-79
2022/02/27 00:43:07;;;;;;;16.50;3.40;;;;;;;-0.29;52.39;103515.56;4977272;28;20045;-80
2022/02/27 00:45:33;;;;;;;8.68;2.67;;;;;;;-0.27;51.86;103521.66;4977666;28;20030;-79
2022/02/27 00:47:59;;;;;;;4.22;2.25;;;;;;;-0.31;51.96;103517.19;4972126;28;20065;-78
2022/02/27 00:50:25;;;;;;;4.05;2.15;;;;;;;-0.35;51.40;103515.25;4977081;28;20054;-79
2022/02/27 00:52:50;;;;;;;8.10;2.28;;;;;;;-0.26;51.57;103508.03;4975127;28;20697;-78
2022/02/27 00:55:17;;;;;;;9.95;1.48;;;;;;;-0.37;51.12;103506.59;4975867;28;20064;-79
2022/02/27 00:57:42;;;;;;;3.65;1.55;;;;;;;-0.36;50.85;103511.81;4981136;28;20065;-77
2022/02/27 01:00:09;;;;;;;13.48;1.88;;;;;;;-0.29;50.39;103520.72;4978129;28;20163;-78
2022/02/27 01:02:34;;;;;;;16.77;1.60;;;;;;;-0.35;50.15;103510.13;4974751;28;20501;-78
2022/02/27 01:05:00;;;;;;;9.00;1.20;;;;;;;-0.32;49.98;103515.44;4995038;28;20037;-80
2022/02/27 01:07:26;;;;;;;4.07;1.13;;;;;;;-0.33;49.71;103512.78;4966542;28;20046;-81
2022/02/27 01:09:52;;;;;;;6.63;1.30;;;;;;;-0.35;49.55;103522.97;4981177;28;20038;-81
2022/02/27 01:12:18;;;;;;;8.57;1.13;;;;;;;-0.42;49.49;103514.09;4963901;28;20057;-79
2022/02/27 01:14:44;;;;;;;7.10;0.93;;;;;;;-0.42;49.22;103513.22;5004384;28;20030;-78
2022/02/27 01:17:10;;;;;;;7.35;0.95;;;;;;;-0.42;49.16;103523.50;4979562;28;20056;-80
2022/02/27 01:19:36;;;;;;;4.65;0.98;;;;;;;-0.39;48.78;103515.94;4983196;28;20060;-79
2022/02/27 01:22:03;;;;;;;7.15;0.88;;;;;;;-0.54;49.13;103516.09;4980408;28;20317;-81
2022/02/27 01:24:28;;;;;;;15.88;1.10;;;;;;;-0.47;48.80;103509.56;4985543;28;20037;-79
2022/02/27 01:26:54;;;;;;;9.07;1.35;;;;;;;-0.29;48.22;103517.25;4982181;28;20116;-78
2022/02/27 01:29:19;;;;;;;9.05;1.63;;;;;;;-0.50;48.20;103515.44;4987418;28;20058;-79
2022/02/27 01:31:48;;;;;;;4.30;0.90;;;;;;;-0.52;48.25;103511.03;4998785;28;20075;-79
2022/02/27 01:34:13;;;;;;;4.93;1.05;;;;;;;-0.58;48.53;103517.59;4975408;28;20042;-79
2022/02/27 01:36:42;;;;;;;5.25;1.10;;;;;;;-0.57;48.40;103519.38;4982230;28;20114;-81
2022/02/27 01:39:07;;;;;;;2.03;0.85;;;;;;;-0.56;48.28;103520.25;4982121;28;20793;-78
2022/02/27 01:41:34;;;;;;;3.22;1.40;;;;;;;-0.61;48.12;103519.16;4977576;28;20038;-79
2022/02/27 01:43:59;;;;;;;11.80;1.85;;;;;;;-0.63;48.32;103521.66;4979543;28;20117;-83
2022/02/27 01:46:25;;;;;;;6.50;1.23;;;;;;;-0.65;48.17;103515.56;4983184;28;20117;-81
2022/02/27 01:48:50;;;;;;;7.55;1.15;;;;;;;-0.65;48.20;103519.81;4987133;28;20451;-77
2022/02/27 01:51:16;;;;;;;5.20;0.80;;;;;;;-0.68;48.10;103514.50;4984984;28;20526;-76
2022/02/27 01:53:41;;;;;;;4.88;1.23;;;;;;;-0.73;48.07;103522.00;4976918;28;20071;-79
2022/02/27 01:56:07;;;;;;;6.20;1.55;;;;;;;-0.75;48.22;103515.88;4982156;28;20034;-78
2022/02/27 01:58:34;;;;;;;11.00;1.70;;;;;;;-0.74;48.22;103524.50;5005764;28;20044;-78
2022/02/27 02:01:00;;;;;;;4.65;1.00;;;;;;;-0.81;48.22;103518.19;4985250;28;20030;-78
2022/02/27 02:03:27;;;;;;;6.72;1.75;;;;;;;-0.79;48.05;103526.84;4981377;28;20038;-76
2022/02/27 02:05:53;;;;;;;10.32;1.13;;;;;;;-0.71;47.86;103525.50;4999318;28;20152;-77
2022/02/27 02:08:19;;;;;;;4.15;1.13;;;;;;;-0.73;47.66;103527.13;5002367;28;20124;-79
2022/02/27 02:10:46;;;;;;;3.78;0.88;;;;;;;-0.82;47.56;103529.25;4980429;28;20040;-79
2022/02/27 02:13:12;;;;;;;4.40;1.33;;;;;;;-0.94;47.96;103532.09;4977469;28;20050;-79
2022/02/27 02:15:38;;;;;;;2.53;0.77;;;;;;;-0.88;48.02;103527.25;4973880;28;20301;-78
2022/02/27 02:18:08;;;;;;;3.85;0.93;;;;;;;-0.90;48.07;103515.16;4980349;28;20041;-79
2022/02/27 02:20:37;;;;;;;3.53;0.95;;;;;;;-0.89;48.01;103525.47;4997869;28;20677;-77
2022/02/27 02:23:03;;;;;;;6.38;1.00;;;;;;;-1.02;48.52;103516.31;5003031;28;20042;-77
2022/02/27 02:25:29;;;;;;;3.40;0.90;;;;;;;-0.95;48.10;103524.28;4982756;28;20696;-77
2022/02/27 02:27:56;;;;;;;4.13;0.90;;;;;;;-1.00;48.32;103526.63;4976849;28;20038;-77
2022/02/27 02:30:21;;;;;;;2.42;0.95;;;;;;;-1.18;48.71;103521.41;4990012;28;20041;-78
2022/02/27 02:32:50;;;;;;;3.42;1.23;;;;;;;-0.97;48.34;103514.84;4981853;28;20045;-75
2022/02/27 02:35:18;;;;;;;3.65;1.52;;;;;;;-0.91;48.08;103515.94;4980620;28;20061;-79
2022/02/27 02:37:44;;;;;;;2.70;0.95;;;;;;;-0.95;48.11;103516.59;4976162;28;20511;-78
2022/02/27 02:40:11;;;;;;;4.28;1.08;;;;;;;-1.04;48.47;103505.06;4996925;28;20030;-78
2022/02/27 02:42:42;;;;;;;3.58;0.70;;;;;;;-1.06;48.03;103508.31;4979214;28;20072;-77
2022/02/27 02:45:09;;;;;;;3.17;1.17;;;;;;;-1.09;48.44;103505.59;4989347;28;20026;-78
2022/02/27 02:47:40;;;;;;;6.90;1.60;;;;;;;-1.07;48.40;103501.41;4998299;28;20033;-77
2022/02/27 02:50:06;;;;;;;4.82;0.82;;;;;;;-1.17;48.61;103508.66;4964507;28;20495;-79
2022/02/27 02:52:32;;;;;;;2.17;1.20;;;;;;;-1.22;48.62;103510.13;4986385;28;20325;-77
2022/02/27 02:54:59;;;;;;;4.72;1.02;;;;;;;-1.20;48.60;103507.59;4981910;28;20038;-77
2022/02/27 02:57:25;;;;;;;5.40;0.80;;;;;;;-1.17;48.52;103502.66;4980613;28;20046;-77
2022/02/27 02:59:50;;;;;;;4.88;0.85;;;;;;;-1.27;48.55;103505.53;4979151;28;20583;-78
2022/02/27 03:02:16;;;;;;;2.92;1.00;;;;;;;-1.25;48.35;103506.50;4988722;28;20045;-77
2022/02/27 03:04:42;;;;;;;4.07;0.55;;;;;;;-1.25;48.58;103511.63;4977214;28;20029;-78
2022/02/27 03:07:07;;;;;;;3.15;1.15;;;;;;;-1.26;48.69;103504.75;4979225;28;20061;-78
2022/02/27 03:09:35;;;;;;;2.40;0.73;;;;;;;-1.25;48.77;103498.81;4965271;28;20125;-79
2022/02/27 03:12:03;;;;;;;3.40;0.73;;;;;;;-1.22;48.64;103505.00;4985738;28;20101;-78
2022/02/27 03:14:28;;;;;;;3.97;0.77;;;;;;;-1.17;48.51;103502.66;5003405;28;20088;-78
2022/02/27 03:16:54;;;;;;;2.60;0.77;;;;;;;-1.24;48.22;103508.25;5001062;28;20033;-78
2022/02/27 03:19:19;;;;;;;3.90;1.10;;;;;;;-1.17;48.09;103503.53;4965021;28;20096;-79
2022/02/27 03:21:45;;;;;;;2.47;0.65;;;;;;;-1.21;48.25;103505.88;4996474;28;20038;-78
2022/02/27 03:24:10;;;;;;;4.00;0.93;;;;;;;-1.24;48.46;103505.69;4972191;28;20675;-79
2022/02/27 03:26:36;;;;;;;3.25;0.90;;;;;;;-1.29;48.17;103507.13;4977127;28;20468;-78
2022/02/27 03:29:02;;;;;;;4.45;0.70;;;;;;;-1.52;49.03;103503.38;4977160;28;20037;-79
2022/02/27 03:31:28;;;;;;;5.05;0.85;;;;;;;-1.36;48.61;103495.69;4999121;28;20026;-78
2022/02/27 03:33:53;;;;;;;2.63;1.10;;;;;;;-1.47;48.90;103502.81;4972389;28;20534;-78
2022/02/27 03:36:19;;;;;;;4.60;1.02;;;;;;;-1.44;48.52;103503.00;4976566;28;20038;-78
2022/02/27 03:38:45;;;;;;;5.82;0.98;;;;;;;-1.47;48.74;103501.94;4996346;28;20033;-79
2022/02/27 03:41:11;;;;;;;6.80;1.90;;;;;;;-1.55;49.01;103493.84;4979895;28;20037;-77
2022/02/27 03:43:37;;;;;;;4.72;1.08;;;;;;;-1.51;49.38;103498.34;4964243;28;20068;-80
2022/02/27 03:46:03;;;;;;;3.35;0.90;;;;;;;-1.48;48.96;103495.06;4976401;28;20144;-78
2022/02/27 03:48:28;;;;;;;5.38;0.68;;;;;;;-1.47;49.06;103496.81;4976216;28;20052;-77
2022/02/27 03:50:54;;;;;;;3.83;0.70;;;;;;;-1.52;48.88;103491.44;4979638;28;20034;-78
2022/02/27 03:53:21;;;;;;;1.92;0.65;;;;;;;-1.47;49.07;103492.56;4985146;28;20130;-78
2022/02/27 03:55:46;;;;;;;2.78;1.52;;;;;;;-1.47;48.90;103497.69;4973662;28;20704;-78
2022/02/27 03:58:12;;;;;;;4.80;1.38;;;;;;;-1.47;49.19;103487.41;4986328;28;20083;-79
2022/02/27 04:00:37;;;;;;;2.33;0.60;;;;;;;-1.49;49.06;103488.16;5002268;28;20054;-77
2022/02/27 04:03:03;;;;;;;2.80;0.55;;;;;;;-1.53;49.21;103492.25;4977902;28;20539;-79
2022/02/27 04:05:28;;;;;;;2.05;0.70;;;;;;;-1.52;49.16;103480.31;4995312;28;20503;-78
2022/02/27 04:07:54;;;;;;;6.22;0.82;;;;;;;-1.59;49.37;103489.34;4994669;28;20441;-79
2022/02/27 04:10:19;;;;;;;3.42;1.17;;;;;;;-1.63;49.28;103483.19;4978412;28;20103;-78
2022/02/27 04:12:45;;;;;;;2.45;0.85;;;;;;;-1.70;49.73;103480.22;4999718;28;20221;-78
2022/02/27 04:15:10;;;;;;;4.53;1.55;;;;;;;-1.61;49.31;103481.56;4989453;28;20129;-78
2022/02/27 04:17:37;;;;;;;4.18;0.90;;;;;;;-1.60;49.13;103479.88;4979435;28;20496;-79
2022/02/27 04:20:03;;;;;;;5.03;1.27;;;;;;;-1.60;49.11;103479.88;4996559;28;20038;-77
2022/02/27 04:22:29;;;;;;;1.63;0.90;;;;;;;-1.68;49.70;103481.19;4977178;28;20049;-77
2022/02/27 04:24:55;;;;;;;1.98;0.45;;;;;;;-1.75;49.57;103474.84;4976326;28;20026;-78
2022/02/27 04:27:20;;;;;;;1.67;0.85;;;;;;;-1.75;49.75;103472.28;4990357;28;20042;-78
2022/02/27 04:29:46;;;;;;;4.70;1.23;;;;;;;-1.65;49.39;103476.22;4977156;28;20068;-80
2022/02/27 04:32:12;;;;;;;4.90;1.23;;;;;;;-1.69;49.69;103470.03;4976734;28;20037;-79
2022/02/27 04:34:37;;;;;;;5.10;0.88;;;;;;;-1.70;49.48;103472.53;4982657;28;20129;-77
2022/02/27 04:37:04;;;;;;;5.65;1.02;;;;;;;-1.72;49.23;103474.13;4994590;28;20087;-78
2022/02/27 04:39:29;;;;;;;2.95;1.08;;;;;;;-1.73;49.41;103473.25;4979015;28;20125;-78
2022/02/27 04:41:56;;;;;;;1.58;1.05;;;;;;;-1.83;50.00;103476.13;4978984;28;20254;-78
2022/02/27 04:44:21;;;;;;;5.68;1.23;;;;;;;-1.74;49.73;103480.84;4985204;28;20268;-80
2022/02/27 04:46:47;;;;;;;2.28;0.88;;;;;;;-1.81;49.74;103477.97;4978612;28;20038;-78
2022/02/27 04:49:12;;;;;;;3.38;1.17;;;;;;;-1.82;49.87;103470.22;4987828;28;20065;-78
2022/02/27 04:51:38;;;;;;;4.75;0.93;;;;;;;-1.83;50.02;103481.25;4978777;28;20528;-78
2022/02/27 04:54:03;;;;;;;3.00;0.80;;;;;;;-1.90;49.90;103480.03;4985754;28;20660;-77
2022/02/27 04:56:29;;;;;;;5.03;1.02;;;;;;;-1.85;49.65;103475.16;4978088;28;20045;-78
2022/02/27 04:58:54;;;;;;;4.53;0.88;;;;;;;-1.85;49.83;103473.47;4973227;28;20046;-79
2022/02/27 05:01:20;;;;;;;2.20;0.70;;;;;;;-1.85;49.91;103478.59;4976801;28;20038;-79
2022/02/27 05:03:45;;;;;;;9.35;1.58;;;;;;;-1.89;50.17;103481.81;4984687;28;20043;-78
2022/02/27 05:06:11;;;;;;;5.50;1.35;;;;;;;-1.89;50.29;103470.66;4979925;28;20038;-78
2022/02/27 05:08:37;;;;;;;3.67;0.90;;;;;;;-1.88;50.29;103468.19;4977209;28;20307;-80
2022/02/27 05:11:02;;;;;;;3.92;0.95;;;;;;;-1.86;50.27;103476.84;4979430;28;20036;-78
2022/02/27 05:13:28;;;;;;;3.28;0.57;;;;;;;-2.01;50.62;103471.75;4991790;28;20046;-79
2022/02/27 05:15:54;;;;;;;3.83;1.17;;;;;;;-1.89;50.50;103471.56;4993415;28;20037;-79
2022/02/27 05:18:20;;;;;;;4.85;1.10;;;;;;;-1.94;50.43;103467.84;5004235;28;20515;-79
2022/02/27 05:20:46;;;;;;;3.25;1.08;;;;;;;-1.91;50.26;103477.38;4978273;28;20041;-78
2022/02/27 05:23:11;;;;;;;3.33;1.13;;;;;;;-1.87;50.25;103481.88;4982903;28;20038;-80
2022/02/27 05:25:37;;;;;;;4.47;1.10;;;;;;;-1.87;50.24;103484.44;4978261;28;20519;-77
2022/02/27 05:28:03;;;;;;;3.13;0.95;;;;;;;-1.89;50.44;103479.25;4995293;28;20045;-79
2022/02/27 05:30:28;;;;;;;2.80;1.08;;;;;;;-2.04;51.02;103470.72;4994827;28;20038;-80
2022/02/27 05:32:54;;;;;;;7.07;1.13;;;;;;;-1.99;51.08;103473.53;4985235;28;20030;-80
2022/02/27 05:35:19;;;;;;;3.38;1.13;;;;;;;-1.87;50.34;103471.63;4977258;28;20026;-79
2022/02/27 05:37:45;;;;;;;2.33;0.80;;;;;;;-1.99;50.94;103484.66;4977519;28;20046;-81
2022/02/27 05:40:11;;;;;;;6.47;1.40;;;;;;;-1.83;50.21;103487.25;4970784;28;20039;-79
2022/02/27 05:42:36;;;;;;;5.43;1.60;;;;;;;-1.93;50.44;103484.09;4976530;28;20045;-78
2022/02/27 05:45:04;;;;;;;3.42;1.00;;;;;;;-1.85;50.26;103493.09;4998185;28;20037;-78
2022/02/27 05:47:30;;;;;;;2.78;0.95;;;;;;;-1.80;49.90;103499.34;4983883;28;20060;-78
2022/02/27 05:49:55;;;;;;;3.63;0.88;;;;;;;-1.86;50.05;103493.91;4984971;28;20022;-81
2022/02/27 05:52:21;;;;;;;5.15;1.63;;;;;;;-1.88;49.93;103498.06;4977728;28;20491;-76
2022/02/27 05:54:47;;;;;;;7.50;1.25;;;;;;;-1.92;50.14;103499.56;4991521;28;20042;-79
2022/02/27 05:57:12;;;;;;;6.15;1.48;;;;;;;-2.06;50.15;103513.34;4981798;28;20029;-79
2022/02/27 05:59:38;;;;;;;3.78;1.27;;;;;;;-2.05;50.50;103512.53;4999520;28;20442;-79
2022/02/27 06:02:04;;;;;;;2.33;0.70;;;;;;;-2.03;50.39;103510.94;4978837;28;20056;-79
2022/02/27 06:04:29;;;;;;;4.88;1.10;;;;;;;-1.98;50.18;103506.94;4984487;28;20069;-78
2022/02/27 06:06:55;;;;;;;6.78;0.93;;;;;;;-2.06;50.55;103514.22;4989234;28;20042;-78
2022/02/27 06:09:20;;;;;;;5.03;1.20;;;;;;;-2.04;50.40;103516.88;4978866;28;20033;-78
2022/02/27 06:11:46;;;;;;;5.88;1.30;;;;;;;-2.19;50.66;103521.16;5001715;28;20057;-80
2022/02/27 06:14:11;;;;;;;2.00;1.02;;;;;;;-2.07;50.21;103520.16;4973427;28;20058;-79
2022/02/27 06:16:37;;;;;;;4.57;0.90;;;;;;;-2.15;50.45;103523.09;4980548;28;20030;-78
2022/02/27 06:19:02;;;;;;;4.90;1.42;;;;;;;-2.15;50.30;103523.97;5001876;28;20064;-80
2022/02/27 06:21:29;;;;;;;7.47;1.10;;;;;;;-2.10;50.15;103526.78;4964759;28;20142;-79
2022/02/27 06:23:54;;;;;;;5.07;0.93;;;;;;;-2.15;50.18;103526.53;4978989;28;20041;-80
2022/02/27 06:26:20;;;;;;;9.68;0.98;;;;;;;-2.14;50.29;103530.84;4978645;28;20031;-80
2022/02/27 06:28:45;;;;;;;3.00;0.85;;;;;;;-2.06;50.12;103529.59;4997631;28;20588;-79
2022/02/27 06:31:11;;;;;;;3.38;0.98;;;;;;;-2.07;50.30;103525.28;4980563;28;20033;-78
2022/02/27 06:33:37;;;;;;;2.75;0.77;;;;;;;-2.01;50.02;103532.41;4966142;28;20033;-78
2022/02/27 06:36:03;;;;;;;5.10;0.88;;;;;;;-2.02;50.06;103535.78;4981602;28;20030;-78
2022/02/27 06:38:28;;;;;;;8.07;1.20;;;;;;;-1.89;49.36;103537.31;4978721;28;20497;-79
2022/02/27 06:40:54;;;;;;;3.92;1.02;;;;;;;-1.96;49.79;103541.22;4983306;28;20038;-77
2022/02/27 06:43:19;;;;;;;3.63;1.20;;;;;;;-2.03;50.14;103542.56;4976540;28;20038;-78
2022/02/27 06:45:45;;;;;;;2.70;1.00;;;;;;;-2.00;49.94;103549.53;4980946;28;20026;-79
2022/02/27 06:48:10;;;;;;;1.02;0.68;;;;;;;-2.01;50.32;103548.66;4979751;28;20034;-79
2022/02/27 06:50:36;;;;;;;6.82;1.20;;;;;;;-1.85;49.92;103550.38;5003812;28;20272;-78
2022/02/27 06:53:02;;;;;;;1.88;0.85;;;;;;;-1.93;50.10;103556.78;4979578;28;20053;-80
2022/02/27 06:55:27;;;;;;;8.25;1.13;;;;;;;-1.87;50.03;103556.22;4982839;28;20072;-78
2022/02/27 06:57:53;;;;;;;3.03;0.82;;;;;;;-1.90;50.17;103559.50;4996808;28;20080;-78
2022/02/27 07:00:19;;;;;;;2.10;0.93;;;;;;;-1.80;49.89;103558.31;4980484;28;20076;-79
2022/02/27 07:02:45;;;;;;;3.15;0.75;;;;;;;-1.82;49.97;103554.81;4976899;28;20108;-80
2022/02/27 07:05:11;;;;;;;3.53;0.80;;;;;;;-1.72;49.77;103559.63;4980175;28;20199;-79
2022/02/27 07:07:37;;;;;;;5.82;0.70;;;;;;;-1.75;49.96;103566.28;4979611;28;20124;-80
2022/02/27 07:10:05;;;;;;;4.13;1.02;;;;;;;-1.72;49.94;103557.06;4978327;28;20118;-77
2022/02/27 07:12:32;;;;;;;6.28;1.42;;;;;;;-1.74;49.81;103570.59;4981878;28;20362;-76
2022/02/27 07:14:58;;;;;;;5.78;1.23;;;;;;;-1.61;49.91;103573.03;4964681;28;20473;-80
2022/02/27 07:17:25;;;;;;;3.53;1.35;;;;;;;-1.67;50.02;103570.13;4979378;28;20558;-78
2022/02/27 07:19:51;;;;;;;3.97;1.08;;;;;;;-1.92;50.76;103568.78;5002275;28;20061;-78
2022/02/27 07:22:18;;;;;;;2.03;1.00;;;;;;;-1.75;50.27;103572.28;4995667;28;20053;-78
2022/02/27 07:24:43;;;;;;;3.00;1.00;;;;;;;-1.69;50.51;103561.47;4980577;28;20037;-80
2022/02/27 07:27:09;;;;;;;7.20;1.95;;;;;;;-1.31;50.11;103560.06;4976135;28;20034;-78
2022/02/27 07:29:35;;;;;;;6.50;1.38;;;;;;;0.21;46.98;103553.06;4980531;28;20042;-77
2022/02/27 07:32:00;;;;;;;3.25;1.08;;;;;;;2.69;42.59;103547.72;4982720;28;20368;-79
2022/02/27 07:34:26;;;;;;;1.92;0.85;;;;;;;4.22;37.29;103539.81;4980708;28;20377;-79
2022/02/27 07:36:54;;;;;;;2.33;0.98;;;;;;;5.07;35.75;103541.31;4981643;28;20124;-79
2022/02/27 07:39:20;;;;;;;7.85;1.25;;;;;;;6.02;34.21;103535.78;4971832;28;20497;-79
2022/02/27 07:41:46;;;;;;;7.00;1.70;;;;;;;6.49;31.85;103536.78;4979287;28;20061;-80
2022/02/27 07:44:14;;;;;;;4.18;1.13;;;;;;;6.77;31.83;103534.69;4980294;28;20029;-78
2022/02/27 07:46:40;;;;;;;4.13;1.20;;;;;;;7.32;31.59;103545.19;4979124;28;20384;-80
2022/02/27 07:49:06;;;;;;;4.00;1.50;;;;;;;7.83;30.54;103540.81;4976410;28;20041;-78
2022/02/27 07:51:32;;;;;;;8.13;1.20;;;;;;;8.19;28.89;103539.56;4978601;28;20044;-79
2022/02/27 07:53:57;;;;;;;2.28;1.02;;;;;;;8.55;28.77;103539.97;4997165;28;20051;-78
2022/02/27 07:56:23;;;;;;;6.07;1.10;;;;;;;9.44;27.90;103547.78;4977575;28;20041;-78
2022/02/27 07:58:49;;;;;;;4.35;1.02;;;;;;;9.25;26.41;103551.09;4980268;28;20092;-78
2022/02/27 08:01:14;;;;;;;4.32;1.13;;;;;;;9.47;27.38;103547.78;4980160;28;20022;-78
2022/02/27 08:03:40;;;;;;;5.70;1.63;;;;;;;9.99;27.08;103548.16;4981340;28;20284;-79
2022/02/27 08:06:06;;;;;;;1.10;0.70;;;;;;;9.70;27.30;103552.31;4965319;28;20036;-78
2022/02/27 08:08:33;;;;;;;3.08;1.00;;;;;;;9.08;27.09;103549.22;4996357;28;20466;-79
2022/02/27 08:10:59;;;;;;;2.00;1.10;;;;;;;9.02;28.02;103556.13;4976344;28;20111;-79
2022/02/27 08:13:25;;;;;;;5.88;1.30;;;;;;;9.39;27.58;103558.19;4982745;28;20034;-79
2022/02/27 08:15:50;;;;;;;3.47;1.00;;;;;;;9.16;27.13;103551.91;4992699;28;20052;-78
2022/02/27 08:18:17;;;;;;;2.22;0.90;;;;;;;9.02;27.61;103548.31;5010555;28;20041;-78
2022/02/27 08:20:43;;;;;;;4.15;1.13;;;;;;;9.30;27.34;103552.91;5010656;28;20026;-80
2022/02/27 08:23:09;;;;;;;2.97;1.00;;;;;;;9.01;28.22;103560.47;4974964;28;20057;-79
2022/02/27 08:25:34;;;;;;;5.32;1.42;;;;;;;9.29;28.24;103558.09;4977852;28;20065;-80
2022/02/27 08:28:00;;;;;;;3.90;1.55;;;;;;;9.39;28.86;103563.41;4985357;28;20447;-80
2022/02/27 08:30:28;;;;;;;5.35;1.50;;;;;;;10.05;27.11;103556.91;5014108;28;20044;-84
2022/02/27 08:32:54;;;;;;;2.47;1.05;;;;;;;10.32;27.06;103561.38;4998455;28;20049;-81
2022/02/27 08:35:20;;;;;;;5.57;1.50;;;;;;;10.31;25.91;103562.25;5004210;28;20052;-82
2022/02/27 08:37:45;;;;;;;7.63;1.38;;;;;;;9.87;26.50;103557.69;4989335;28;20065;-81
2022/02/27 08:40:11;;;;;;;4.90;1.30;;;;;;;9.44;28.73;103555.63;4990607;28;20053;-79
2022/02/27 08:42:37;;;;;;;2.90;0.98;;;;;;;9.76;27.64;103558.44;4945371;28;20061;-81
2022/02/27 08:45:03;;;;;;;6.70;1.27;;;;;;;9.67;27.24;103563.59;4984359;28;20029;-81
2022/02/27 08:47:29;;;;;;;3.88;1.60;;;;;;;9.52;27.89;103558.28;4991308;28;20471;-82
2022/02/27 08:49:54;;;;;;;4.50;1.38;;;;;;;8.49;28.57;103558.13;4996999;28;20030;-82
2022/02/27 08:52:20;;;;;;;6.13;1.77;;;;;;;8.66;29.88;103557.47;5007668;28;20210;-81
2022/02/27 08:54:48;;;;;;;7.68;1.98;;;;;;;8.84;28.96;103556.81;4981327;28;20117;-78
2022/02/27 08:57:15;;;;;;;5.43;2.17;;;;;;;8.04;29.78;103559.31;5005671;28;20116;-77
2022/02/27 08:59:40;;;;;;;6.30;1.35;;;;;;;7.78;30.51;103561.59;4996679;28;20136;-78
2022/02/27 09:02:06;;;;;;;5.35;1.60;;;;;;;8.11;30.88;103553.38;4978528;28;20062;-78
2022/02/27 09:04:32;;;;;;;5.50;1.08;;;;;;;7.42;31.46;103562.72;4980652;28;20112;-79
2022/02/27 09:06:58;;;;;;;4.57;1.50;;;;;;;7.53;32.08;103557.66;4975131;28;20113;-78
2022/02/27 09:09:23;;;;;;;2.90;1.15;;;;;;;7.25;32.41;103567.63;4977390;28;20070;-77
2022/02/27 09:11:49;;;;;;;5.03;1.70;;;;;;;6.84;32.58;103564.28;4969258;28;20034;-78
2022/02/27 09:14:14;;;;;;;7.97;1.30;;;;;;;6.71;33.89;103555.41;4957285;28;20049;-79
2022/02/27 09:16:40;;;;;;;4.53;1.40;;;;;;;6.66;33.87;103559.63;4979684;28;20061;-78
2022/02/27 09:19:05;;;;;;;6.07;1.02;;;;;;;6.24;34.51;103565.69;4959165;28;20085;-79
2022/02/27 09:21:31;;;;;;;7.47;1.65;;;;;;;5.94;35.13;103564.16;4975103;28;20038;-78
2022/02/27 09:23:57;;;;;;;9.00;1.73;;;;;;;5.77;35.50;103573.25;4961959;28;20042;-80
2022/02/27 09:26:24;;;;;;;10.00;2.28;;;;;;;5.63;35.79;103579.00;4985266;28;20510;-77
2022/02/27 09:28:51;;;;;;;6.80;2.03;;;;;;;6.09;35.39;103559.31;4974903;28;20034;-77
2022/02/27 09:31:17;;;;;;;6.30;1.63;;;;;;;6.50;34.30;103554.13;4984198;28;20057;-79
2022/02/27 09:33:42;;;;;;;4.57;1.50;;;;;;;6.86;34.72;103554.78;4986351;28;20650;-78
2022/02/27 09:36:10;;;;;;;3.45;1.75;;;;;;;6.91;33.78;103554.06;5003178;28;20034;-80
2022/02/27 09:38:40;;;;;;;6.53;1.75;;;;;;;6.85;33.94;103551.31;4979341;28;20037;-78
2022/02/27 09:41:07;;;;;;;5.50;1.88;;;;;;;6.63;33.81;103556.97;4978137;28;20061;-79
2022/02/27 09:43:33;;;;;;;3.55;1.45;;;;;;;6.60;33.33;103560.38;4980428;28;20041;-78
2022/02/27 09:46:00;;;;;;;8.00;1.90;;;;;;;6.73;33.74;103561.50;4983133;28;20057;-78
2022/02/27 09:48:28;;;;;;;6.40;1.48;;;;;;;7.22;33.05;103565.00;4979336;28;20049;-78
2022/02/27 09:50:53;;;;;;;4.45;1.38;;;;;;;7.31;32.47;103567.75;4979978;28;20532;-78
2022/02/27 09:53:19;;;;;;;6.40;1.70;;;;;;;7.15;33.53;103576.13;4948023;28;20137;-78
2022/02/27 09:55:45;;;;;;;6.82;2.10;;;;;;;6.73;33.29;103573.59;4989944;28;20027;-78
2022/02/27 09:58:11;;;;;;;8.73;2.10;;;;;;;6.73;33.59;103568.41;4978293;28;20046;-77
2022/02/27 10:00:37;;;;;;;5.78;1.40;;;;;;;6.47;33.82;103564.47;4980704;28;20103;-80
2022/02/27 10:03:14;;;;;;;7.85;1.70;;;;;;;6.85;33.74;103566.94;4946970;28;20121;-80
2022/02/27 10:05:42;;;;;;;4.45;1.52;;;;;;;6.95;33.13;103567.97;4978391;28;20091;-76
2022/02/27 10:08:09;;;;;;;4.30;1.00;;;;;;;6.50;34.08;103559.31;4976561;28;20042;-79
2022/02/27 10:10:36;;;;;;;5.38;1.30;;;;;;;7.35;33.64;103565.19;4982383;28;20072;-80
2022/02/27 10:13:03;;;;;;;4.45;1.35;;;;;;;7.13;32.96;103559.59;4982451;28;20041;-78
2022/02/27 10:15:29;;;;;;;5.63;1.40;;;;;;;7.05;32.81;103554.28;4978790;28;20081;-78
2022/02/27 10:17:55;;;;;;;11.00;1.30;;;;;;;7.50;32.49;103547.22;4986992;28;20041;-79
2022/02/27 10:20:24;;;;;;;4.32;1.35;;;;;;;7.02;32.87;103549.03;4975237;28;20045;-78
2022/02/27 10:22:53;;;;;;;7.82;1.58;;;;;;;6.98;32.96;103544.63;4980142;28;20037;-80
2022/02/27 10:25:27;;;;;;;4.28;1.00;;;;;;;7.16;33.01;103538.88;4962092;28;20034;-78
2022/02/27 10:27:58;;;;;;;5.20;1.35;;;;;;;7.65;31.81;103531.00;4976560;28;20359;-77
2022/02/27 10:30:25;;;;;;;7.13;1.80;;;;;;;7.95;32.63;103533.16;4988683;28;20093;-79
2022/02/27 10:32:55;;;;;;;4.28;1.08;;;;;;;7.67;31.37;103540.59;4962462;28;20045;-81
2022/02/27 10:35:36;;;;;;;4.03;0.60;;;;;;;7.71;31.94;103521.56;4974264;28;20038;-75
2022/02/27 10:38:02;;;;;;;3.70;0.88;;;;;;;7.81;31.44;103511.28;4978607;28;20042;-78
2022/02/27 10:40:55;;;;;;;3.08;0.85;;;;;;;8.01;30.98;103511.53;4983616;28;20036;-80
2022/02/27 10:43:21;;;;;;;6.63;1.63;;;;;;;8.19;31.21;103523.91;4980539;28;20042;-82
2022/02/27 10:46:01;;;;;;;2.38;0.85;;;;;;;7.22;32.06;103522.47;4982479;28;20092;-80
2022/02/27 10:48:28;;;;;;;6.03;1.60;;;;;;;7.69;31.74;103501.53;4988232;28;20397;-80
2022/02/27 10:51:06;;;;;;;6.13;0.85;;;;;;;8.39;30.58;103505.91;4979062;28;20022;-79
2022/02/27 10:53:36;;;;;;;3.20;0.95;;;;;;;7.75;31.11;103506.84;4965736;28;20039;-79
2022/02/27 10:56:07;;;;;;;1.60;0.82;;;;;;;8.00;31.12;103500.22;4982923;28;20048;-81
2022/02/27 10:58:48;;;;;;;1.65;0.70;;;;;;;7.51;32.03;103512.53;4953448;28;20042;-79
2022/02/27 11:01:25;;;;;;;4.40;1.20;;;;;;;7.73;32.13;103493.81;4983716;28;20332;-79
2022/02/27 11:03:55;;;;;;;5.07;1.38;;;;;;;7.28;32.26;103491.38;4977632;28;20257;-77
2022/02/27 11:06:22;;;;;;;4.97;1.08;;;;;;;7.06;33.41;103503.16;4996587;28;20423;-79
2022/02/27 11:08:48;;;;;;;4.80;1.13;;;;;;;7.60;32.62;103497.09;4980809;28;20630;-78
2022/02/27 11:11:15;;;;;;;1.65;0.77;;;;;;;7.32;33.29;103486.22;5003797;28;20037;-77
2022/02/27 11:13:45;;;;;;;4.18;1.00;;;;;;;7.21;32.70;103492.13;4982587;28;20141;-80
2022/02/27 11:16:12;;;;;;;2.17;0.90;;;;;;;6.88;33.09;103478.56;4979267;28;20066;-80
2022/02/27 11:18:38;;;;;;;2.92;1.20;;;;;;;6.68;33.26;103490.34;4973308;28;20018;-79
2022/02/27 11:21:04;;;;;;;4.20;1.42;;;;;;;7.00;33.70;103479.63;4998420;28;20030;-77
2022/02/27 11:23:31;;;;;;;2.75;1.10;;;;;;;7.54;33.22;103481.38;4968360;28;20061;-79